aviador You're here:

KHDO Decoded Metar

HONDO in TX, USA
Report Time2017-06-29 11:51:00
UTC Time2017-06-29 12:27:32
Flight Rules vfr VFR
Wind050° at 04 kt
W.Decomp.*RWY 08: 3.2 kt HW 2.5 kt LCW
RWY 35: 2.5 kt HW 3.2 kt RCW
RWY 13: 0.1 kt HW 4 kt LCW
W.Rank050° ranks 18
Current wind is below 050° avg. (6.3)
Visibility9999 m
Phenomena:N/A
Clouds:N/A
Expected CloudBase > 400 ft AGL from Temp-Dew spread
CeilingNone
Temp22°C (ISA +9)
Dew Point21°C (94% RH)
QNH1012 hPa
Density Alt2,320 ft
Elevation925 ft
Report Wrong Elevation
Raw Report
METAR KHDO 291151Z AUTO 05004KT 10SM CLR 22/21 A2987 RMK AO2 SLP097
T02220211 10256 20217 53004=

Extra information for KHDO:More info

Metar Taf Metar & Taf Last 4 Metars F.Rules Stats Wind Profile Meteogram Temp Stats Airport Information Weather charts Add Link Nearby VenuesMetar ALERT Operation Metar Decoded Social comments

AIRNAV info for KHDO